»·PEaware :: N437SP KSAN-54CL

N437SP :: KSAN-54CL

FLIGHT INFORMATION

Flight Status: Arrived
Operator: Privately registered:
United States
More flights under this callsign
Pilot: Carl B. (5552)
Aircraft: BEECH AIRCRAFT BARON
(BE58)
More flights by this aircraft type
Origin: KSAN San Diego Intl-Lindbergh
United States
Destination: 54CL Lake Riverside Estates
United States
More flights between these airports :: More routes between these airports
Route: +
File this flight plan on PilotEdge
Remarks:
Altitude:
(Current/Filed)
5,500ft
Speed:
(Current/Filed)
200kts
Departed: 16-Mar-15 08:24 AM
Arrived: 16-Mar-15 08:45 AM
Distance/Time
Traveled:
110nm/0:20
Distance/Time
To Go:
Arrived

Flight Plot

Page will automatically refresh every two minutes.


Map Options




Map Legend


Flown Route
Filed Route
Departure Airport
Arrival Airport
Navaid (VOR, NDB)
Fix

Horizontal Profiles

Position Reports

Time Latitude Longitude Heading Altitude Ground
Speed
16-Mar-15 07:58 32.732392 -117.176712 194 20ft 0kts
16-Mar-15 07:59 32.732392 -117.176712 194 20ft 0kts
16-Mar-15 08:00 32.732392 -117.176712 194 20ft 0kts
16-Mar-15 08:01 32.732392 -117.176712 194 20ft 0kts
16-Mar-15 08:02 32.732392 -117.176712 194 20ft 0kts
16-Mar-15 08:03 32.732392 -117.176712 194 20ft 0kts
16-Mar-15 08:04 32.732392 -117.176712 194 20ft 0kts
16-Mar-15 08:05 32.732392 -117.176712 194 20ft 0kts
16-Mar-15 08:06 32.732392 -117.176712 194 20ft 0kts
16-Mar-15 08:07 32.732392 -117.176712 194 20ft 0kts
16-Mar-15 08:08 32.732392 -117.176712 194 20ft 0kts
16-Mar-15 08:09 32.732392 -117.176712 194 20ft 0kts
16-Mar-15 08:10 32.732392 -117.176712 194 20ft 0kts
16-Mar-15 08:11 32.732392 -117.176712 194 20ft 0kts
16-Mar-15 08:12 32.732392 -117.176712 194 20ft 0kts
16-Mar-15 08:13 32.732392 -117.176712 194 20ft 0kts
16-Mar-15 08:14 32.732205 -117.177154 194 20ft 0kts
16-Mar-15 08:15 32.732205 -117.177154 194 20ft 0kts
16-Mar-15 08:16 32.731145 -117.175792 112 20ft 8kts
16-Mar-15 08:17 32.730752 -117.178096 285 20ft 63kts
16-Mar-15 08:18 32.750551 -117.211309 320 1127ft 150kts
16-Mar-15 08:19 32.786902 -117.232547 21 2694ft 149kts
16-Mar-15 08:20 32.818817 -117.207531 27 4326ft 144kts
16-Mar-15 08:21 32.854040 -117.185556 28 5700ft 150kts
16-Mar-15 08:22 32.898339 -117.159990 26 5756ft 194kts
16-Mar-15 08:23 32.946793 -117.133172 28 5516ft 187kts
16-Mar-15 08:24 32.993219 -117.105326 27 5581ft 190kts
16-Mar-15 08:25 33.040176 -117.075120 25 5509ft 197kts
16-Mar-15 08:26 33.088832 -117.046706 22 5519ft 196kts
16-Mar-15 08:27 33.138414 -117.019929 26 5622ft 190kts
16-Mar-15 08:28 33.183891 -116.993511 26 6294ft 176kts
16-Mar-15 08:29 33.226983 -116.968426 26 7086ft 170kts
16-Mar-15 08:30 33.262872 -116.947496 26 7510ft 181kts
16-Mar-15 08:31 33.310345 -116.919802 26 7504ft 194kts
16-Mar-15 08:32 33.358510 -116.891720 26 6881ft 201kts
16-Mar-15 08:33 33.409096 -116.863275 23 5746ft 203kts
16-Mar-15 08:34 33.454757 -116.843360 21 4104ft 148kts
16-Mar-15 08:35 33.486033 -116.831151 352 4350ft 111kts
16-Mar-15 08:36 33.511729 -116.846314 19 4066ft 109kts
16-Mar-15 08:37 33.527055 -116.822970 83 3732ft 91kts
16-Mar-15 08:38 33.520492 -116.795601 114 3413ft 33kts
16-Mar-15 08:39 33.520458 -116.794535 52 3413ft 0kts
16-Mar-15 08:40 33.520458 -116.794535 52 3413ft 0kts
16-Mar-15 08:41 33.520458 -116.794535 52 3413ft 0kts
16-Mar-15 08:42 34.261743 -118.414873 140 1006ft 0kts
16-Mar-15 08:43 34.260345 -118.412373 140 1006ft 0kts
16-Mar-15 08:44 34.260345 -118.412373 140 1006ft 0kts
16-Mar-15 08:45 34.260342 -118.412369 134 1006ft 0kts
16-Mar-15 08:46 34.260278 -118.412485 306 1006ft 0kts
16-Mar-15 08:47 34.260278 -118.412485 306 1006ft 0kts
16-Mar-15 08:48 34.260278 -118.412485 306 1006ft 0kts
16-Mar-15 08:49 34.260278 -118.412485 306 1006ft 0kts
16-Mar-15 08:50 34.260278 -118.412485 306 1006ft 0kts
16-Mar-15 08:51 34.260278 -118.412485 306 1006ft 0kts
16-Mar-15 08:52 34.260278 -118.412485 306 1006ft 0kts

Navigation Log

Ident Type
Flight plan parsing failed, navigation log unavailable